Etusivu
METAR-TAF:

METAR-TAF

Lentoasemat :

Stokmarknes, Norja

Stokmarknesin lentoasema

Leveyspiiri: 68-35N, Pituuspiiri: 015-01E, korkeus merenpinnasta: 0 m

Tämänhetkinen sää

Tämä raportti tehtiin 1 tunti ja 7 minuuttia sitten, kello 13.50 UTC
Tuuli 8 kn etelästä
Lämpötila 0°C
Kosteus 93%
Ilmanpaine 981 hPa
Näkyvyys: 5000 m
heikkoja lumikuuroja

METAR: ENSK 131350Z 19008KT 5000 -SHSN VV015 00/M01 Q0981

Aika: 15:57 (14:57 UTC)


TAF: puuttuu

Säähavainnot ja -ennusteet yli 4000 lentoasemalta (METAR- ja TAF-raportit).

Käytössä olevat sääasemat on merkitty karttaan keltaisilla ja punaisilla pisteillä.

Aseta hiiri pisteen päälle nähdäksesi sääaseman nimen.

Klikkaa sitten nähdäksesi säähavainnot ja -ennusteet.

Kartan vaihtaminen: klikkaa mustalla rastilla varustettuja vihreitä pisteitä, niin voit zoomata sisään; viivalla varustettua vihreää pistettä, niin voit zoomata ulos tai vihreitä nuolia, niin pääset viereisille kartoille.


METAR-TAF: